Terminal Aerodrome Forecast
Issued by NWS

Home | Current Version | Previous Version | Text Only | Print | Product List | Glossary On
Versions: 1 2 3 4 5 6 7 8 9 10 11 12 13 14 15 16
398
FTUS43 KDVN 220136 AAA
TAFCID
TAF AMD
KCID 220136Z 2202/2224 08012KT P6SM OVC150
     FM220400 08009KT P6SM OVC120
     FM221800 09013KT P6SM BKN200=

USA.gov is the U.S. government's official web portal to all federal, state and local government web resources and services.